Ironia, New Jersey
Current Conditions -  °F | °C
As of 10:50 AM on Friday 31 Oct 2014 (Local Time) from KMMU Reporting Station
Overcast Overcast  
Wind Chill: 46°   Ceiling: 4500
Heat Index: 48°   Visibility: 10mi
Dew Point: 39°   Wind: 6mph
Humidity: 71%   Direction: 50°NE
Pressure: 30.01"   Gusts: NA
Location:  40.82°N, 74.63°W
Report Text: KMMU 311450Z 05005KT 10SM OVC045 09/04 A3001
Loading
Personal Weather Stations






























Interactive Weather Map
Tropical Storm Tracking
New forecast layout! Learn more

10-Day Weather Forecast

Advertisements
Track Severe Weather on mobile